Time;durP1;ratioP1;P1;durP2;ratioP2;P2;SDS_P1;SDS_P2;PMS_P1;PMS_P2;Temp;Humidity;BMP_temperature;BMP_pressure;BME280_temperature;BME280_humidity;BME280_pressure;Samples;Min_cycle;Max_cycle;Signal;HPM_P1;HPM_P2
2023/06/14 00:00:12;;;;;;;10.88;6.32;;;20.80;48.70;;;20.37;40.78;100350.81;4952040;28;20508;-84
2023/06/14 00:02:43;;;;;;;8.88;5.85;;;20.70;49.00;;;20.35;41.04;100356.53;4956609;28;20055;-84
2023/06/14 00:05:11;;;;;;;9.02;6.07;;;20.70;49.00;;;20.33;40.91;100362.19;4929289;28;20135;-83
2023/06/14 00:07:43;;;;;;;11.75;6.10;;;20.70;49.10;;;20.31;41.38;100356.25;4956891;28;20492;-83
2023/06/14 00:10:12;;;;;;;10.15;6.03;;;20.70;49.40;;;20.28;41.33;100353.28;4951731;28;20105;-84
2023/06/14 00:12:39;;;;;;;8.60;6.18;;;20.60;49.30;;;20.25;41.19;100357.38;4943212;29;20043;-82
2023/06/14 00:15:10;;;;;;;9.27;6.50;;;20.60;49.40;;;20.23;41.69;100367.66;4948172;29;20123;-82
2023/06/14 00:17:38;;;;;;;11.15;5.97;;;20.60;49.80;;;20.20;41.37;100367.41;4950041;28;20094;-82
2023/06/14 00:20:09;;;;;;;10.48;6.15;;;20.50;49.70;;;20.17;41.48;100365.28;4936828;28;20062;-83
2023/06/14 00:22:40;;;;;;;11.35;6.00;;;20.50;49.80;;;20.14;41.99;100373.94;4950122;28;20047;-84
2023/06/14 00:25:08;;;;;;;9.57;6.50;;;20.50;50.20;;;20.11;41.63;100371.81;4950866;28;20047;-87
2023/06/14 00:27:39;;;;;;;9.02;6.47;;;20.40;50.20;;;20.09;42.15;100373.97;4943535;28;20157;-84
2023/06/14 00:30:07;;;;;;;13.50;6.77;;;20.40;50.40;;;20.05;42.29;100377.22;4944870;28;20098;-83
2023/06/14 00:32:35;;;;;;;9.55;6.43;;;20.40;50.50;;;20.02;42.26;100379.69;4934758;28;20039;-85
2023/06/14 00:35:02;;;;;;;11.88;6.35;;;20.40;50.70;;;19.98;42.37;100386.72;4945434;28;20630;-85
2023/06/14 00:37:30;;;;;;;9.88;6.50;;;20.30;50.60;;;19.95;42.31;100382.66;4952487;28;20059;-83
2023/06/14 00:39:59;;;;;;;10.20;6.70;;;20.30;50.60;;;19.94;42.15;100386.47;4946729;29;20133;-83
2023/06/14 00:42:29;;;;;;;9.77;6.55;;;20.30;50.70;;;19.92;42.52;100385.94;4948713;28;20118;-83
2023/06/14 00:44:57;;;;;;;10.57;6.65;;;20.30;50.90;;;19.90;42.50;100390.81;4931631;29;20062;-82
2023/06/14 00:47:25;;;;;;;9.25;6.63;;;20.30;51.00;;;19.88;42.45;100382.16;4951277;28;20069;-82
2023/06/14 00:49:53;;;;;;;10.52;6.78;;;20.20;51.10;;;19.87;42.78;100377.84;4952326;28;20043;-84
2023/06/14 00:52:24;;;;;;;9.73;6.68;;;20.20;51.10;;;19.86;42.68;100391.63;4937021;28;20047;-82
2023/06/14 00:54:52;;;;;;;13.02;6.97;;;20.20;51.00;;;19.86;41.96;100392.44;4926881;29;20047;-83
2023/06/14 00:57:21;;;;;;;15.52;6.88;;;20.20;50.40;;;19.86;42.33;100387.00;4949415;28;20472;-82
2023/06/14 00:59:50;;;;;;;10.90;6.40;;;20.20;50.90;;;19.86;42.39;100397.84;4963128;28;20061;-83
2023/06/14 01:02:18;;;;;;;9.32;6.72;;;20.20;50.90;;;19.89;42.44;100396.50;4940844;28;20047;-82
2023/06/14 01:04:50;;;;;;;12.23;7.22;;;20.20;51.00;;;19.89;42.26;100405.44;4941417;29;20058;-83
2023/06/14 01:07:44;;;;;;;12.10;6.53;;;20.30;51.00;;;19.89;42.51;100391.88;4944034;28;20231;-84
2023/06/14 01:10:32;;;;;;;11.23;6.25;;;20.30;51.00;;;19.91;42.20;100394.31;4947193;28;20047;-85
2023/06/14 01:13:13;;;;;;;10.55;6.68;;;20.30;50.70;;;19.93;41.94;100401.09;4942451;28;20047;-83
2023/06/14 01:15:45;;;;;;;12.10;6.57;;;20.30;50.70;;;19.95;42.16;100398.91;4920143;29;20074;-83
2023/06/14 01:18:17;;;;;;;9.93;6.57;;;20.30;50.60;;;19.95;41.86;100401.63;4950298;28;20075;-82
2023/06/14 01:20:49;;;;;;;9.90;6.45;;;20.30;50.50;;;19.95;41.95;100403.50;4941274;28;20042;-84
2023/06/14 01:23:18;;;;;;;10.43;6.40;;;20.30;50.30;;;19.94;41.68;100405.41;4931636;28;20051;-83
2023/06/14 01:25:46;;;;;;;10.15;6.45;;;20.40;50.40;;;19.95;42.06;100408.94;4962060;28;20057;-84
2023/06/14 01:28:16;;;;;;;12.30;6.50;;;20.40;50.60;;;19.93;42.00;100403.78;4941389;28;20525;-83
2023/06/14 01:30:51;;;;;;;12.82;7.00;;;20.30;50.30;;;19.92;42.24;100402.19;4942705;28;20074;-83
2023/06/14 01:33:25;;;;;;;10.07;6.53;;;20.30;50.90;;;19.91;42.35;100402.44;4942522;28;20153;-83
2023/06/14 01:35:55;;;;;;;12.45;6.50;;;20.40;50.90;;;19.90;42.01;100404.34;4949448;28;20066;-83
2023/06/14 01:38:27;;;;;;;10.93;6.72;;;20.30;50.70;;;19.88;42.25;100403.00;4930808;29;20077;-83
2023/06/14 01:40:59;;;;;;;;;;;20.30;50.90;;;19.85;42.61;100396.22;4932119;29;20073;-83
2023/06/14 01:43:28;;;;;;;10.10;6.63;;;20.30;51.40;;;19.81;42.40;100395.16;4947723;28;19930;-84
2023/06/14 01:45:56;;;;;;;8.80;6.13;;;20.20;51.10;;;19.80;42.50;100391.63;4937904;28;20046;-82
2023/06/14 01:48:24;;;;;;;12.48;6.55;;;20.20;51.10;;;19.80;42.75;100393.53;4953395;28;20047;-84
2023/06/14 01:50:52;;;;;;;11.95;6.38;;;20.20;51.40;;;19.76;42.68;100390.59;4931481;28;20169;-84
2023/06/14 01:53:21;;;;;;;11.95;6.30;;;20.20;51.40;;;19.74;42.71;100400.84;4949956;28;20130;-83
2023/06/14 01:55:50;;;;;;;9.02;6.25;;;20.10;51.40;;;19.72;42.46;100404.94;4934971;28;20195;-83
2023/06/14 01:58:21;;;;;;;9.95;6.10;;;20.10;51.30;;;19.70;42.67;100405.19;4923325;29;20059;-84
2023/06/14 02:00:48;;;;;;;10.07;6.22;;;20.10;51.30;;;19.70;42.24;100405.19;4931635;28;20138;-83
2023/06/14 02:03:15;;;;;;;13.60;6.60;;;20.10;51.30;;;19.69;42.23;100406.28;4930977;29;20051;-85
2023/06/14 02:05:43;;;;;;;8.93;5.95;;;20.10;51.10;;;19.68;42.53;100401.97;4940995;28;20043;-84
2023/06/14 02:08:10;;;;;;;10.95;6.40;;;20.00;51.00;;;19.67;42.18;100399.53;4958009;28;20047;-83
2023/06/14 02:10:38;;;;;;;14.52;6.10;;;20.00;51.00;;;19.63;42.18;100398.47;4931436;28;20534;-84
2023/06/14 02:13:09;;;;;;;9.07;5.95;;;20.00;51.00;;;19.61;42.45;100396.00;4946056;29;20075;-83
2023/06/14 02:15:36;;;;;;;9.73;5.85;;;20.00;51.10;;;19.58;42.45;100401.13;4917402;29;20492;-83
2023/06/14 02:18:04;;;;;;;13.57;6.63;;;20.00;51.40;;;19.56;42.96;100401.38;4949419;28;20051;-84
2023/06/14 02:20:35;;;;;;;12.68;6.80;;;20.00;51.80;;;19.53;42.63;100405.47;4932954;29;20059;-85
2023/06/14 02:23:03;;;;;;;11.95;6.32;;;19.90;51.50;;;19.50;42.92;100400.59;4933177;29;20176;-83
2023/06/14 02:25:32;;;;;;;11.68;6.60;;;19.90;51.90;;;19.49;42.90;100403.56;4923331;29;20043;-82
2023/06/14 02:27:59;;;;;;;11.65;6.10;;;19.90;51.60;;;19.49;42.92;100411.69;4932058;29;20051;-84
2023/06/14 02:30:28;;;;;;;11.05;6.38;;;19.90;52.10;;;19.47;43.46;100405.72;4943367;29;20127;-83
2023/06/14 02:32:58;;;;;;;8.53;6.20;;;19.80;52.20;;;19.46;43.39;100404.91;4931268;28;20047;-82
2023/06/14 02:35:26;;;;;;;8.40;5.90;;;19.80;52.50;;;19.43;43.64;100402.78;4960290;28;20275;-84
2023/06/14 02:37:56;;;;;;;10.63;5.72;;;19.80;52.50;;;19.40;43.59;100400.59;4935494;29;20508;-82
2023/06/14 02:40:24;;;;;;;12.77;6.05;;;19.80;52.60;;;19.39;43.13;100404.38;4947677;28;20078;-85
2023/06/14 02:42:51;;;;;;;8.43;6.03;;;19.80;52.30;;;19.36;43.06;100413.03;4931553;29;20071;-85
2023/06/14 02:45:18;;;;;;;8.38;5.63;;;19.70;52.10;;;19.35;43.07;100408.72;4932147;29;20524;-84
2023/06/14 02:47:50;;;;;;;10.35;6.50;;;19.70;52.10;;;19.34;43.27;100409.81;4961808;28;20122;-83
2023/06/14 02:50:17;;;;;;;;;;;19.70;52.10;;;19.33;42.84;100410.91;4939047;28;20063;-82
2023/06/14 02:52:45;;;;;;;8.73;5.95;;;19.70;52.10;;;19.31;43.01;100407.63;4938147;28;19973;-83
2023/06/14 02:55:13;;;;;;;8.60;6.05;;;19.70;51.90;;;19.32;42.79;100420.06;4948395;28;20051;-84
2023/06/14 02:57:41;;;;;;;10.55;6.03;;;19.70;51.90;;;19.30;42.86;100423.06;4929594;29;20582;-83
2023/06/14 03:00:13;;;;;;;10.52;5.95;;;19.70;52.00;;;19.28;43.16;100422.53;4934847;29;20039;-83
2023/06/14 03:02:44;;;;;;;9.70;6.18;;;19.70;52.60;;;19.25;43.55;100422.25;4935149;28;20057;-84
2023/06/14 03:05:16;;;;;;;7.57;5.57;;;19.60;52.50;;;19.21;43.71;100429.25;4926072;28;20134;-83
2023/06/14 03:07:45;;;;;;;10.23;6.15;;;19.60;52.70;;;19.17;43.63;100430.88;4935751;28;20051;-82
2023/06/14 03:10:15;;;;;;;10.25;6.30;;;19.60;52.80;;;19.13;44.04;100436.03;4937780;28;20078;-83
2023/06/14 03:12:44;;;;;;;9.20;5.95;;;19.50;53.00;;;19.09;43.91;100431.44;4952404;28;20678;-85
2023/06/14 03:15:17;;;;;;;9.38;6.05;;;19.50;52.90;;;19.07;43.97;100434.38;4949050;28;20547;-84
2023/06/14 03:17:49;;;;;;;10.70;6.38;;;19.50;52.90;;;19.05;44.33;100436.56;4928525;28;20496;-85
2023/06/14 03:20:19;;;;;;;10.60;6.35;;;19.40;53.30;;;19.02;44.25;100446.00;4934929;28;20065;-83
2023/06/14 03:22:48;;;;;;;9.40;6.20;;;19.40;53.40;;;18.97;44.16;100437.06;4934671;28;20055;-84
2023/06/14 03:25:16;;;;;;;10.95;6.28;;;19.40;53.50;;;18.93;44.42;100452.19;4934435;28;20039;-84
2023/06/14 03:27:45;;;;;;;10.82;6.40;;;19.30;53.60;;;18.90;44.29;100450.84;4947109;28;20051;-83
2023/06/14 03:30:13;;;;;;;9.77;5.75;;;19.30;53.60;;;18.88;44.60;100454.88;4933825;29;20055;-83
2023/06/14 03:32:43;;;;;;;10.35;6.32;;;19.30;53.70;;;18.85;44.53;100453.53;4932657;29;20054;-83
2023/06/14 03:35:16;;;;;;;9.15;6.00;;;19.20;53.80;;;18.84;44.85;100456.50;4947936;28;20058;-82
2023/06/14 03:37:46;;;;;;;9.77;6.38;;;19.20;54.20;;;18.80;45.05;100458.94;4935273;29;20063;-83
2023/06/14 03:40:16;;;;;;;11.35;6.00;;;19.20;54.60;;;18.77;45.22;100459.44;4934036;28;20074;-82
2023/06/14 03:42:45;;;;;;;10.57;6.32;;;19.20;54.70;;;18.76;45.37;100460.53;4937295;28;20047;-83
2023/06/14 03:45:13;;;;;;;9.68;5.82;;;19.10;54.70;;;18.72;45.20;100462.94;4944632;23;20488;-81
2023/06/14 03:47:40;;;;;;;9.15;6.10;;;19.10;54.80;;;18.70;45.34;100464.31;4946376;28;20130;-82
2023/06/14 03:50:08;;;;;;;9.52;6.20;;;19.10;54.90;;;18.67;45.30;100470.19;4937880;29;20043;-84
2023/06/14 03:52:36;;;;;;;9.63;5.80;;;19.00;54.80;;;18.66;45.68;100471.28;4934708;29;20047;-84
2023/06/14 03:55:07;;;;;;;12.80;6.03;;;19.10;55.30;;;18.65;45.37;100469.66;4921524;29;20056;-84
2023/06/14 03:57:35;;;;;;;9.88;6.22;;;19.00;55.10;;;18.64;45.63;100481.53;4928759;29;20066;-85
2023/06/14 04:00:05;;;;;;;10.43;6.28;;;19.00;55.20;;;18.65;45.31;100483.97;4917355;29;20054;-86
2023/06/14 04:02:41;;;;;;;10.88;6.15;;;19.00;55.10;;;18.67;45.59;100489.91;4931256;29;20063;-85
2023/06/14 04:05:11;;;;;;;9.50;5.88;;;19.00;55.20;;;18.67;45.73;100487.22;4930245;29;20059;-85
2023/06/14 04:07:44;;;;;;;12.45;6.05;;;19.00;55.60;;;18.69;46.14;100495.09;4929669;29;20043;-84
2023/06/14 04:10:14;;;;;;;11.15;6.05;;;19.00;55.50;;;18.68;45.39;100496.13;4911674;29;20099;-84
2023/06/14 04:12:41;;;;;;;9.68;6.22;;;19.00;55.20;;;18.70;45.34;100500.25;4932405;29;20054;-84
2023/06/14 04:15:10;;;;;;;11.80;6.10;;;19.10;55.10;;;18.73;45.40;100498.88;4930905;29;20428;-84
2023/06/14 04:17:39;;;;;;;11.52;6.15;;;19.10;55.10;;;18.73;44.71;100501.59;4933027;29;20051;-85
2023/06/14 04:20:09;;;;;;;11.93;6.20;;;19.10;54.40;;;18.72;44.61;100511.59;4928975;29;20060;-84
2023/06/14 04:22:37;;;;;;;9.25;5.68;;;19.10;54.30;;;18.77;44.54;100508.09;4929585;29;20517;-84
2023/06/14 04:25:06;;;;;;;9.75;5.70;;;19.10;54.00;;;18.85;44.69;100501.38;4930897;29;20542;-84
2023/06/14 04:27:36;;;;;;;8.00;5.78;;;19.20;54.20;;;18.91;44.10;100509.22;4915434;29;20660;-84
2023/06/14 04:30:07;;;;;;;11.33;5.93;;;19.30;53.30;;;18.98;44.14;100512.50;4930050;29;20416;-84
2023/06/14 04:32:39;;;;;;;16.30;6.50;;;19.40;53.40;;;19.07;44.00;100511.97;4930457;29;20055;-84
2023/06/14 04:35:10;;;;;;;8.85;5.75;;;19.50;53.60;;;19.18;43.77;100513.59;4923499;29;20127;-86
2023/06/14 04:37:41;;;;;;;9.65;6.03;;;19.60;53.00;;;19.33;43.68;100518.25;4925447;29;20134;-85
2023/06/14 04:40:11;;;;;;;17.92;5.75;;;19.80;53.00;;;19.47;43.67;100514.75;4935725;29;20058;-83
2023/06/14 04:42:44;;;;;;;8.48;5.15;;;19.90;53.30;;;19.63;42.90;100507.50;4925811;29;20066;-83
2023/06/14 04:45:12;;;;;;;11.25;5.88;;;20.10;52.20;;;19.80;42.84;100524.25;4934291;28;20051;-83
2023/06/14 04:47:41;;;;;;;9.48;5.22;;;20.20;51.90;;;19.96;41.76;100527.78;4929875;29;20043;-84
2023/06/14 04:50:13;;;;;;;9.85;5.28;;;20.30;50.90;;;20.13;41.79;100524.78;4936041;29;20051;-83
2023/06/14 04:52:41;;;;;;;11.27;5.57;;;20.50;50.60;;;20.30;41.54;100528.00;4934691;29;20051;-84
2023/06/14 04:55:10;;;;;;;11.07;5.72;;;20.70;50.60;;;20.48;41.26;100528.53;4921467;29;20181;-84
2023/06/14 04:57:41;;;;;;;10.27;5.32;;;20.90;50.30;;;20.60;40.67;100530.94;4925848;29;20615;-84
2023/06/14 05:00:12;;;;;;;9.20;5.03;;;21.00;49.40;;;20.75;40.31;100526.28;4923942;29;20058;-84
2023/06/14 05:02:40;;;;;;;14.05;5.22;;;21.20;48.90;;;20.90;39.93;100530.00;4931205;28;20131;-84
2023/06/14 05:05:08;;;;;;;8.98;4.57;;;21.30;48.30;;;20.99;40.28;100533.75;4931716;29;20046;-84
2023/06/14 05:07:36;;;;;;;11.55;4.95;;;21.40;48.30;;;21.11;39.54;100528.00;4938374;29;20552;-84
2023/06/14 05:10:05;;;;;;;9.27;4.90;;;21.50;47.50;;;21.21;39.00;100520.59;4919880;29;20110;-87
2023/06/14 05:12:32;;;;;;;8.38;4.55;;;21.70;46.90;;;21.31;39.63;100536.84;4940817;28;20052;-82
2023/06/14 05:15:01;;;;;;;9.25;4.57;;;21.80;47.50;;;21.41;39.04;100527.00;4932948;28;20525;-84
2023/06/14 05:17:28;;;;;;;10.75;5.00;;;21.80;47.30;;;21.49;39.29;100532.66;4928657;29;20058;-85
2023/06/14 05:19:56;;;;;;;11.70;4.65;;;21.90;47.60;;;21.58;39.17;100528.25;4929620;29;20039;-86
2023/06/14 05:22:24;;;;;;;12.27;5.60;;;22.00;47.10;;;21.69;38.73;100541.75;4929603;29;20058;-85
2023/06/14 05:24:51;;;;;;;15.40;7.57;;;22.10;46.30;;;21.75;38.00;100532.47;4930520;29;20149;-86
2023/06/14 05:27:18;;;;;;;9.77;6.57;;;22.20;45.40;;;21.83;37.80;100531.84;4928279;29;20118;-86
2023/06/14 05:29:45;;;;;;;11.90;6.13;;;22.30;44.90;;;21.87;37.00;100535.63;4932446;29;20063;-86
2023/06/14 05:32:14;;;;;;;8.98;5.20;;;22.30;44.10;;;21.93;37.40;100539.09;4934260;29;20409;-87
2023/06/14 05:34:41;;;;;;;12.95;4.80;;;22.40;45.00;;;22.01;36.79;100536.59;4937775;28;20047;-86
2023/06/14 05:37:09;;;;;;;10.27;4.65;;;22.50;43.80;;;22.09;36.69;100538.66;4927952;29;20126;-86
2023/06/14 05:39:36;;;;;;;8.98;4.40;;;22.60;43.70;;;22.16;36.68;100537.59;4930385;29;20044;-87
2023/06/14 05:42:03;;;;;;;9.57;4.32;;;22.60;43.80;;;22.25;36.99;100546.69;4928590;29;20103;-87
2023/06/14 05:44:31;;;;;;;8.23;3.92;;;22.70;44.10;;;22.34;37.01;100539.53;4929640;29;20047;-86
2023/06/14 05:46:58;;;;;;;8.52;4.43;;;22.80;44.30;;;22.40;36.29;100535.69;4929719;29;20066;-86
2023/06/14 05:49:26;;;;;;;8.10;4.03;;;22.90;43.20;;;22.49;36.18;100544.00;4930956;29;20130;-87
2023/06/14 05:51:53;;;;;;;9.93;3.78;;;23.00;43.00;;;22.59;36.11;100561.03;4928111;29;20155;-87
2023/06/14 05:54:21;;;;;;;11.75;4.03;;;23.10;43.20;;;22.69;35.57;100556.56;4930529;29;20102;-87
2023/06/14 05:56:48;;;;;;;10.35;4.70;;;23.20;42.40;;;22.76;35.07;100557.03;4927579;29;20130;-87
2023/06/14 05:59:15;;;;;;;11.02;4.63;;;23.20;41.60;;;22.81;34.97;100562.41;4938166;29;20043;-87
2023/06/14 06:01:43;;;;;;;11.40;3.67;;;23.30;41.50;;;22.90;34.28;100562.63;4930877;29;20059;-86
2023/06/14 06:04:10;;;;;;;11.68;3.90;;;23.30;40.40;;;22.94;33.84;100564.47;4927683;29;20051;-87
2023/06/14 06:06:39;;;;;;;9.93;4.43;;;23.40;39.60;;;22.98;33.77;100568.19;4942437;28;20130;-87
2023/06/14 06:09:07;;;;;;;11.48;3.70;;;23.50;39.70;;;23.06;34.24;100569.47;4930693;29;20130;-87
2023/06/14 06:11:34;;;;;;;7.28;3.50;;;23.50;40.20;;;23.14;34.45;100566.09;4935132;29;20040;-87
2023/06/14 06:14:01;;;;;;;8.13;3.50;;;23.60;40.70;;;23.22;34.82;100562.72;4927797;29;20563;-87
2023/06/14 06:16:28;;;;;;;10.82;4.22;;;23.70;40.90;;;23.33;34.97;100566.13;4929900;29;20075;-87
2023/06/14 06:18:56;;;;;;;8.05;3.85;;;23.80;41.10;;;23.39;34.18;100567.66;4926269;29;20493;-87
2023/06/14 06:21:23;;;;;;;9.80;3.80;;;23.90;40.50;;;23.42;34.14;100568.97;4929207;29;20043;-87
2023/06/14 06:23:51;;;;;;;12.10;3.53;;;23.90;39.90;;;23.45;34.06;100573.84;4929621;29;20083;-87
2023/06/14 06:26:19;;;;;;;17.52;3.95;;;23.90;39.80;;;23.51;34.64;100573.44;4931275;28;20047;-87
2023/06/14 06:28:46;;;;;;;8.20;3.53;;;24.00;40.30;;;23.58;33.99;100579.34;4936928;29;20051;-87
2023/06/14 06:31:13;;;;;;;8.43;3.45;;;24.10;39.90;;;23.62;32.92;100572.22;4938317;28;20051;-87
2023/06/14 06:33:40;;;;;;;13.80;3.58;;;24.10;38.10;;;23.65;32.84;100568.09;4936006;29;20051;-87
2023/06/14 06:36:08;;;;;;;8.38;3.20;;;24.20;38.30;;;23.73;33.42;100575.63;4933531;29;20678;-87
2023/06/14 06:38:35;;;;;;;10.57;2.63;;;24.30;38.90;;;23.77;32.97;100575.84;4929175;29;20047;-87
2023/06/14 06:41:04;;;;;;;7.10;3.17;;;24.20;38.10;;;23.78;32.65;100575.53;4927792;29;20505;-87
2023/06/14 06:43:31;;;;;;;7.13;2.78;;;24.30;37.70;;;23.80;32.40;100580.69;4928531;29;20047;-87
2023/06/14 06:45:59;;;;;;;6.35;2.63;;;24.30;37.50;;;23.86;32.10;100580.31;4937050;29;20127;-87
2023/06/14 06:48:26;;;;;;;7.63;2.70;;;24.40;37.30;;;23.93;32.56;100582.66;4923764;29;20154;-86
2023/06/14 06:50:53;;;;;;;4.95;2.45;;;24.50;37.70;;;23.97;31.37;100589.13;4927282;29;20131;-88
2023/06/14 06:53:20;;;;;;;6.32;2.33;;;24.50;36.20;;;24.01;32.07;100592.03;4935374;29;20059;-88
2023/06/14 06:55:47;;;;;;;5.82;2.33;;;24.50;37.10;;;24.10;33.01;100588.34;4931590;29;20047;-87
2023/06/14 06:58:16;;;;;;;5.15;2.40;;;24.60;38.20;;;24.15;32.04;100598.34;4927025;29;20040;-87
2023/06/14 07:00:43;;;;;;;4.72;2.08;;;24.70;37.00;;;24.16;31.67;100597.25;4925943;29;20135;-88
2023/06/14 07:03:11;;;;;;;7.55;2.53;;;24.70;36.30;;;24.17;32.06;100593.41;4935326;28;20087;-88
2023/06/14 07:05:38;;;;;;;5.00;2.70;;;24.70;37.10;;;24.25;32.14;100603.63;4921032;29;20048;-88
2023/06/14 07:08:06;;;;;;;5.97;2.30;;;24.80;36.90;;;24.29;31.46;100601.09;4922818;29;20044;-87
2023/06/14 07:10:33;;;;;;;5.88;2.50;;;24.80;36.10;;;24.31;31.37;100598.91;4934499;29;20220;-88
2023/06/14 07:13:00;;;;;;;6.00;2.13;;;24.90;35.90;;;24.31;30.93;100607.88;4929674;29;20048;-88
2023/06/14 07:15:29;;;;;;;4.93;2.30;;;24.90;35.40;;;24.24;30.84;100609.38;4934712;29;20059;-87
2023/06/14 07:17:59;;;;;;;4.25;2.13;;;24.80;35.00;;;24.23;31.05;100600.41;4940997;28;20043;-87
2023/06/14 07:20:26;;;;;;;8.63;2.45;;;24.80;35.60;;;24.28;31.49;100604.94;4932333;29;20139;-88
2023/06/14 07:22:54;;;;;;;10.38;2.55;;;24.80;36.10;;;24.31;31.00;100604.34;4924294;29;20047;-88
2023/06/14 07:25:22;;;;;;;5.75;2.60;;;24.90;35.50;;;24.30;30.94;100608.16;4922054;28;20536;-87
2023/06/14 07:27:49;;;;;;;6.57;2.22;;;24.80;35.20;;;24.26;31.03;100609.91;4930159;29;20043;-86
2023/06/14 07:30:16;;;;;;;4.65;2.30;;;24.80;35.00;;;24.28;30.96;100605.75;4935884;28;20118;-86
2023/06/14 07:32:45;;;;;;;8.77;2.40;;;24.80;35.30;;;24.34;30.79;100609.19;4928993;29;20704;-86
2023/06/14 07:35:12;;;;;;;7.25;2.00;;;24.80;35.10;;;24.37;31.21;100606.72;4930258;28;20047;-86
2023/06/14 07:37:39;;;;;;;4.55;2.17;;;24.90;35.70;;;24.35;30.78;100611.63;4924533;28;20131;-88
2023/06/14 07:40:10;;;;;;;6.07;1.88;;;24.90;35.00;;;24.37;30.80;100598.53;4934827;29;20106;-87
2023/06/14 07:42:37;;;;;;;5.72;2.10;;;24.90;35.10;;;24.36;30.36;100602.38;4909826;29;20452;-87
2023/06/14 07:45:06;;;;;;;6.95;2.17;;;24.90;34.30;;;24.34;30.41;100601.81;4923602;29;20060;-87
2023/06/14 07:47:33;;;;;;;5.88;2.20;;;24.90;34.30;;;24.30;30.32;100608.16;4920841;28;20061;-86
2023/06/14 07:50:02;;;;;;;4.55;2.00;;;24.80;34.40;;;24.28;30.27;100613.13;4920410;29;20067;-86
2023/06/14 07:52:30;;;;;;;4.78;2.03;;;24.80;34.30;;;24.29;30.80;100607.38;4942716;29;20460;-87
2023/06/14 07:54:57;;;;;;;7.15;2.35;;;24.80;34.70;;;24.30;30.89;100610.91;4930155;29;20043;-87
2023/06/14 07:57:25;;;;;;;7.43;2.55;;;24.80;35.10;;;24.27;31.44;100609.59;4934487;29;20048;-86
2023/06/14 07:59:52;;;;;;;6.20;2.33;;;24.80;35.80;;;24.29;30.96;100617.47;4935202;28;20603;-86
2023/06/14 08:02:19;;;;;;;4.95;2.25;;;24.80;35.20;;;24.29;31.09;100606.56;4930456;29;20134;-86
2023/06/14 08:04:48;;;;;;;4.57;2.10;;;24.80;35.50;;;24.31;31.58;100607.09;4933074;29;20424;-87
2023/06/14 08:07:16;;;;;;;4.00;2.08;;;24.90;35.90;;;24.34;31.19;100606.47;4940533;29;20512;-87
2023/06/14 08:09:44;;;;;;;7.20;2.10;;;24.90;35.20;;;24.27;30.65;100616.97;4953920;29;20035;-86
2023/06/14 08:12:11;;;;;;;5.35;2.25;;;24.80;34.70;;;24.24;31.12;100629.25;4932850;29;20082;-87
2023/06/14 08:14:40;;;;;;;7.10;2.22;;;24.80;35.40;;;24.25;30.70;100624.63;4944055;29;20118;-87
2023/06/14 08:17:07;;;;;;;11.68;2.60;;;24.80;34.60;;;24.23;30.53;100643.19;4934071;29;20051;-90
2023/06/14 08:19:36;;;;;;;8.25;2.30;;;24.70;34.50;;;24.06;30.55;100630.94;4937787;29;21338;-87
2023/06/14 08:22:04;;;;;;;5.10;2.47;;;24.60;34.60;;;24.07;31.04;100631.75;4937594;28;20043;-87
2023/06/14 08:24:33;;;;;;;7.20;2.20;;;24.60;35.10;;;24.02;30.93;100627.19;4931397;29;20058;-87
2023/06/14 08:27:01;;;;;;;6.95;2.10;;;24.50;35.10;;;24.01;31.06;100631.03;4932267;29;20040;-87
2023/06/14 08:29:30;;;;;;;6.75;2.38;;;24.50;35.20;;;23.94;31.08;100630.56;4941433;28;20051;-87
2023/06/14 08:31:58;;;;;;;6.55;2.28;;;24.50;35.40;;;23.93;31.16;100617.25;4925499;29;20071;-87
2023/06/14 08:34:25;;;;;;;5.97;1.90;;;24.50;35.40;;;23.95;30.94;100620.47;4934353;28;20052;-87
2023/06/14 08:36:52;;;;;;;7.13;2.00;;;24.50;35.10;;;23.96;32.14;100633.00;4926383;29;20139;-86
2023/06/14 08:39:20;;;;;;;6.43;2.13;;;24.50;36.60;;;23.93;30.37;100623.50;4918343;29;20062;-87
2023/06/14 08:41:49;;;;;;;7.90;1.98;;;24.50;34.70;;;23.89;31.00;100647.00;4935481;29;20552;-87
2023/06/14 08:44:16;;;;;;;7.20;2.22;;;24.40;35.20;;;23.88;30.95;100631.78;4932343;28;20151;-86
2023/06/14 08:46:44;;;;;;;5.72;2.38;;;24.40;35.30;;;23.81;30.57;100626.69;4939808;29;20529;-85
2023/06/14 08:49:13;;;;;;;6.53;2.45;;;24.40;34.60;;;23.72;30.56;100638.53;4925405;29;20139;-86
2023/06/14 08:51:41;;;;;;;11.73;2.38;;;24.30;34.70;;;23.70;30.20;100635.31;4931231;29;20048;-85
2023/06/14 08:54:09;;;;;;;4.63;2.00;;;24.20;34.40;;;23.60;30.36;100639.75;4923019;29;20131;-86
2023/06/14 08:56:41;;;;;;;5.78;2.50;;;24.00;34.10;;;23.58;30.32;100643.91;4922919;29;20044;-85
2023/06/14 08:59:11;;;;;;;5.40;2.20;;;24.10;34.20;;;23.50;30.67;100623.56;4924045;29;20058;-85
2023/06/14 09:01:39;;;;;;;8.00;2.45;;;24.00;34.40;;;23.53;30.89;100630.34;4927744;29;20626;-86
2023/06/14 09:04:06;;;;;;;5.75;2.00;;;24.00;35.00;;;23.49;30.51;100634.75;4929085;29;20040;-85
2023/06/14 09:06:34;;;;;;;5.60;2.03;;;24.00;34.70;;;23.47;30.74;100626.88;4923343;29;20127;-85
2023/06/14 09:09:02;;;;;;;5.20;2.13;;;23.90;35.00;;;23.47;31.49;100624.16;4936443;28;20440;-85
2023/06/14 09:11:29;;;;;;;6.55;2.30;;;23.90;36.00;;;23.54;31.49;100621.88;4918857;29;20044;-85
2023/06/14 09:13:59;;;;;;;5.65;2.10;;;24.00;36.20;;;23.59;31.38;100621.00;4914600;29;20043;-85
2023/06/14 09:16:28;;;;;;;7.07;2.20;;;24.10;35.40;;;23.66;31.14;100626.09;4926381;29;20043;-86
2023/06/14 09:18:56;;;;;;;4.00;1.85;;;24.10;35.50;;;23.70;30.57;100625.22;4933140;29;20043;-85
2023/06/14 09:21:23;;;;;;;5.32;1.80;;;24.10;34.60;;;23.71;30.13;100628.75;4933252;28;20176;-85
2023/06/14 09:23:50;;;;;;;6.25;1.58;;;24.20;34.30;;;23.67;30.01;100625.00;4931132;28;20836;-85
2023/06/14 09:26:20;;;;;;;7.47;1.60;;;24.10;34.00;;;23.65;30.00;100636.19;4928463;29;20051;-85
2023/06/14 09:28:49;;;;;;;4.47;1.70;;;24.10;34.20;;;23.56;29.75;100621.59;4929020;29;20073;-85
2023/06/14 09:31:18;;;;;;;3.42;1.88;;;24.10;33.70;;;23.55;30.28;100617.25;4928340;29;20751;-86
2023/06/14 09:33:48;;;;;;;4.25;2.00;;;24.00;34.40;;;23.52;30.90;100632.28;4924769;29;20457;-87
2023/06/14 09:36:18;;;;;;;11.35;2.03;;;24.00;35.10;;;23.51;32.41;100633.34;4928624;29;20075;-86
2023/06/14 09:38:53;;;;;;;4.10;1.60;;;24.00;37.00;;;23.47;30.57;100635.03;4917992;28;20047;-85
2023/06/14 09:41:20;;;;;;;6.13;1.25;;;24.00;34.70;;;23.44;30.36;100632.91;4933315;29;20047;-85
2023/06/14 09:46:33;;;;;;;6.43;1.67;;;23.90;34.50;;;23.44;30.34;100632.13;4943858;28;20630;-86
2023/06/14 09:49:05;;;;;;;3.00;1.50;;;23.90;34.50;;;23.43;30.95;100631.31;4952265;28;20034;-85
2023/06/14 09:51:32;;;;;;;10.13;2.03;;;23.90;35.00;;;23.49;30.59;100629.31;4946531;28;20047;-86
2023/06/14 09:54:01;;;;;;;4.88;1.67;;;24.00;34.90;;;23.52;29.92;100643.16;4946313;28;20307;-86
2023/06/14 09:56:30;;;;;;;7.53;1.70;;;24.00;33.90;;;23.48;29.96;100633.97;4951561;28;20051;-86
2023/06/14 09:58:59;;;;;;;5.00;1.60;;;24.00;33.80;;;23.50;30.27;100637.19;4949972;28;20039;-86
2023/06/14 10:01:30;;;;;;;8.35;1.80;;;24.00;34.30;;;23.50;30.37;100631.75;4952756;28;20051;-86
2023/06/14 10:04:05;;;;;;;6.65;1.58;;;24.00;34.20;;;23.48;31.61;100644.84;4939580;28;20135;-87
2023/06/14 10:06:36;;;;;;;6.93;1.58;;;24.00;35.90;;;23.50;30.64;100633.66;4948270;28;20089;-86
2023/06/14 10:09:08;;;;;;;5.40;1.55;;;24.00;34.80;;;23.50;30.81;100639.91;4950955;28;20049;-86
2023/06/14 10:11:36;;;;;;;6.95;1.70;;;24.00;35.00;;;23.53;30.37;100639.34;4953676;28;20077;-86
2023/06/14 10:14:07;;;;;;;5.75;2.10;;;24.00;34.70;;;23.51;30.56;100630.63;4948451;28;20046;-86
2023/06/14 10:16:40;;;;;;;9.63;1.58;;;24.00;34.80;;;23.50;31.14;100634.47;4960818;28;20142;-86
2023/06/14 10:19:21;;;;;;;6.03;1.63;;;24.00;35.40;;;23.53;30.72;100639.34;4935940;28;20067;-86